sensor_id;sensor_type;location;lat;lon;timestamp;pressure;altitude;pressure_sealevel;temperature;humidity
64189;BME280;50493;50.970;10.082;2022-10-31T00:02:07;99741.38;;;11.86;66.99
64189;BME280;50493;50.970;10.082;2022-10-31T00:04:33;99745.84;;;11.80;66.91
64189;BME280;50493;50.970;10.082;2022-10-31T00:06:58;99742.91;;;11.94;66.22
64189;BME280;50493;50.970;10.082;2022-10-31T00:09:25;99747.16;;;12.00;65.88
64189;BME280;50493;50.970;10.082;2022-10-31T00:11:50;99747.22;;;11.97;65.80
64189;BME280;50493;50.970;10.082;2022-10-31T00:14:16;99745.63;;;11.90;66.16
64189;BME280;50493;50.970;10.082;2022-10-31T00:16:41;99749.25;;;11.82;66.32
64189;BME280;50493;50.970;10.082;2022-10-31T00:19:07;99750.28;;;11.75;66.46
64189;BME280;50493;50.970;10.082;2022-10-31T00:21:33;99751.09;;;11.77;66.12
64189;BME280;50493;50.970;10.082;2022-10-31T00:23:59;99752.88;;;11.77;66.33
64189;BME280;50493;50.970;10.082;2022-10-31T00:26:27;99752.00;;;11.78;66.05
64189;BME280;50493;50.970;10.082;2022-10-31T00:28:53;99746.78;;;11.76;66.13
64189;BME280;50493;50.970;10.082;2022-10-31T00:31:19;99760.84;;;11.71;66.28
64189;BME280;50493;50.970;10.082;2022-10-31T00:33:44;99761.72;;;11.71;66.07
64189;BME280;50493;50.970;10.082;2022-10-31T00:36:12;99769.47;;;11.76;65.79
64189;BME280;50493;50.970;10.082;2022-10-31T00:38:38;99768.03;;;11.59;66.44
64189;BME280;50493;50.970;10.082;2022-10-31T00:41:03;99763.84;;;11.51;66.59
64189;BME280;50493;50.970;10.082;2022-10-31T00:43:30;99763.03;;;11.47;66.66
64189;BME280;50493;50.970;10.082;2022-10-31T00:45:55;99772.66;;;11.46;66.53
64189;BME280;50493;50.970;10.082;2022-10-31T00:48:21;99771.72;;;11.49;66.29
64189;BME280;50493;50.970;10.082;2022-10-31T00:50:46;99767.22;;;11.56;65.93
64189;BME280;50493;50.970;10.082;2022-10-31T00:53:12;99770.88;;;11.48;66.01
64189;BME280;50493;50.970;10.082;2022-10-31T00:55:37;99777.13;;;11.41;66.32
64189;BME280;50493;50.970;10.082;2022-10-31T00:58:03;99764.00;;;11.43;66.01
64189;BME280;50493;50.970;10.082;2022-10-31T01:00:30;99772.88;;;11.34;66.28
64189;BME280;50493;50.970;10.082;2022-10-31T01:02:55;99774.53;;;11.38;65.99
64189;BME280;50493;50.970;10.082;2022-10-31T01:05:21;99780.72;;;11.36;65.99
64189;BME280;50493;50.970;10.082;2022-10-31T01:07:47;99782.34;;;11.41;65.52
64189;BME280;50493;50.970;10.082;2022-10-31T01:10:13;99786.91;;;11.30;65.54
64189;BME280;50493;50.970;10.082;2022-10-31T01:12:39;99778.50;;;11.12;66.61
64189;BME280;50493;50.970;10.082;2022-10-31T01:15:06;99780.28;;;11.10;66.55
64189;BME280;50493;50.970;10.082;2022-10-31T01:17:33;99783.13;;;10.98;66.97
64189;BME280;50493;50.970;10.082;2022-10-31T01:19:59;99782.31;;;10.94;67.11
64189;BME280;50493;50.970;10.082;2022-10-31T01:22:24;99788.44;;;10.92;67.00
64189;BME280;50493;50.970;10.082;2022-10-31T01:24:50;99791.91;;;10.94;66.72
64189;BME280;50493;50.970;10.082;2022-10-31T01:27:15;99786.63;;;10.97;66.47
64189;BME280;50493;50.970;10.082;2022-10-31T01:29:41;99784.16;;;10.88;66.71
64189;BME280;50493;50.970;10.082;2022-10-31T01:32:06;99783.06;;;11.01;66.06
64189;BME280;50493;50.970;10.082;2022-10-31T01:34:33;99789.28;;;10.94;66.27
64189;BME280;50493;50.970;10.082;2022-10-31T01:36:58;99782.41;;;10.87;66.49
64189;BME280;50493;50.970;10.082;2022-10-31T01:39:24;99781.59;;;10.85;66.54
64189;BME280;50493;50.970;10.082;2022-10-31T01:41:51;99782.53;;;10.80;66.67
64189;BME280;50493;50.970;10.082;2022-10-31T01:44:50;99778.09;;;10.84;66.23
64189;BME280;50493;50.970;10.082;2022-10-31T01:47:17;99773.00;;;10.78;66.29
64189;BME280;50493;50.970;10.082;2022-10-31T01:49:49;99775.66;;;10.73;66.59
64189;BME280;50493;50.970;10.082;2022-10-31T01:52:19;99775.63;;;10.76;66.08
64189;BME280;50493;50.970;10.082;2022-10-31T01:54:49;99772.16;;;10.74;66.27
64189;BME280;50493;50.970;10.082;2022-10-31T01:57:18;99777.44;;;10.71;66.15
64189;BME280;50493;50.970;10.082;2022-10-31T01:59:47;99775.66;;;10.73;65.90
64189;BME280;50493;50.970;10.082;2022-10-31T02:02:15;99776.59;;;10.71;65.90
64189;BME280;50493;50.970;10.082;2022-10-31T02:04:42;99780.13;;;10.68;65.93
64189;BME280;50493;50.970;10.082;2022-10-31T02:07:12;99775.72;;;10.70;65.77
64189;BME280;50493;50.970;10.082;2022-10-31T02:09:39;99777.50;;;10.68;65.79
64189;BME280;50493;50.970;10.082;2022-10-31T02:12:06;99776.81;;;10.55;66.24
64189;BME280;50493;50.970;10.082;2022-10-31T02:14:35;99780.38;;;10.51;66.23
64189;BME280;50493;50.970;10.082;2022-10-31T02:17:01;99786.34;;;10.59;65.67
64189;BME280;50493;50.970;10.082;2022-10-31T02:19:33;99786.38;;;10.58;65.63
64189;BME280;50493;50.970;10.082;2022-10-31T02:22:06;99786.31;;;10.61;65.48
64189;BME280;50493;50.970;10.082;2022-10-31T02:24:45;99790.78;;;10.56;65.65
64189;BME280;50493;50.970;10.082;2022-10-31T02:27:15;99788.94;;;10.61;65.25
64189;BME280;50493;50.970;10.082;2022-10-31T02:30:04;99793.47;;;10.50;65.64
64189;BME280;50493;50.970;10.082;2022-10-31T02:32:41;99790.16;;;10.38;65.79
64189;BME280;50493;50.970;10.082;2022-10-31T02:35:13;99796.28;;;10.32;66.17
64189;BME280;50493;50.970;10.082;2022-10-31T02:37:47;99792.78;;;10.38;65.91
64189;BME280;50493;50.970;10.082;2022-10-31T02:40:20;99791.00;;;10.39;65.50
64189;BME280;50493;50.970;10.082;2022-10-31T02:42:50;99794.53;;;10.35;65.54
64189;BME280;50493;50.970;10.082;2022-10-31T02:45:26;99788.53;;;10.28;65.65
64189;BME280;50493;50.970;10.082;2022-10-31T02:47:59;99792.97;;;10.21;65.95
64189;BME280;50493;50.970;10.082;2022-10-31T02:50:28;99802.59;;;10.16;66.01
64189;BME280;50493;50.970;10.082;2022-10-31T02:52:55;99795.69;;;10.12;66.00
64189;BME280;50493;50.970;10.082;2022-10-31T02:55:47;99798.28;;;10.17;65.40
64189;BME280;50493;50.970;10.082;2022-10-31T02:58:17;99799.09;;;10.19;65.56
64189;BME280;50493;50.970;10.082;2022-10-31T03:00:48;99803.59;;;10.09;65.82
64189;BME280;50493;50.970;10.082;2022-10-31T03:03:19;99804.50;;;10.05;65.83
64189;BME280;50493;50.970;10.082;2022-10-31T03:05:53;99807.97;;;10.05;65.88
64189;BME280;50493;50.970;10.082;2022-10-31T03:08:23;99813.25;;;10.02;65.73
64189;BME280;50493;50.970;10.082;2022-10-31T03:10:55;99815.03;;;9.97;65.76
64189;BME280;50493;50.970;10.082;2022-10-31T03:13:26;99809.81;;;9.97;65.92
64189;BME280;50493;50.970;10.082;2022-10-31T03:16:02;99809.88;;;9.94;65.86
64189;BME280;50493;50.970;10.082;2022-10-31T03:18:34;99812.53;;;9.91;65.76
64189;BME280;50493;50.970;10.082;2022-10-31T03:21:05;99805.63;;;9.84;65.85
64189;BME280;50493;50.970;10.082;2022-10-31T03:23:34;99807.44;;;9.77;66.29
64189;BME280;50493;50.970;10.082;2022-10-31T03:26:04;99804.94;;;9.69;66.41
64189;BME280;50493;50.970;10.082;2022-10-31T03:28:35;99806.59;;;9.76;65.96
64189;BME280;50493;50.970;10.082;2022-10-31T03:31:04;99804.00;;;9.72;66.09
64189;BME280;50493;50.970;10.082;2022-10-31T03:33:34;99809.22;;;9.75;65.89
64189;BME280;50493;50.970;10.082;2022-10-31T03:36:00;99801.38;;;9.76;65.88
64189;BME280;50493;50.970;10.082;2022-10-31T03:38:28;99800.56;;;9.71;65.73
64189;BME280;50493;50.970;10.082;2022-10-31T03:40:56;99804.84;;;9.75;65.47
64189;BME280;50493;50.970;10.082;2022-10-31T03:43:28;99794.50;;;9.66;65.86
64189;BME280;50493;50.970;10.082;2022-10-31T03:45:55;99799.72;;;9.66;65.78
64189;BME280;50493;50.970;10.082;2022-10-31T03:48:21;99794.47;;;9.72;65.09
64189;BME280;50493;50.970;10.082;2022-10-31T03:50:54;99794.50;;;9.69;65.35
64189;BME280;50493;50.970;10.082;2022-10-31T03:53:25;99796.28;;;9.64;65.68
64189;BME280;50493;50.970;10.082;2022-10-31T03:55:52;99800.63;;;9.65;65.19
64189;BME280;50493;50.970;10.082;2022-10-31T03:58:23;99792.03;;;9.55;65.81
64189;BME280;50493;50.970;10.082;2022-10-31T04:00:51;99790.13;;;9.70;64.92
64189;BME280;50493;50.970;10.082;2022-10-31T04:03:21;99790.19;;;9.65;65.02
64189;BME280;50493;50.970;10.082;2022-10-31T04:05:50;99784.16;;;9.57;64.99
64189;BME280;50493;50.970;10.082;2022-10-31T04:08:22;99794.69;;;9.52;65.57
64189;BME280;50493;50.970;10.082;2022-10-31T04:10:48;99788.53;;;9.58;65.09
64189;BME280;50493;50.970;10.082;2022-10-31T04:13:19;99794.63;;;9.57;64.88
64189;BME280;50493;50.970;10.082;2022-10-31T04:15:47;99795.53;;;9.56;64.66
64189;BME280;50493;50.970;10.082;2022-10-31T04:18:13;99800.00;;;9.41;65.43
64189;BME280;50493;50.970;10.082;2022-10-31T04:20:40;99799.16;;;9.39;65.62
64189;BME280;50493;50.970;10.082;2022-10-31T04:23:15;99794.78;;;9.41;65.48
64189;BME280;50493;50.970;10.082;2022-10-31T04:25:41;99799.97;;;9.48;65.13
64189;BME280;50493;50.970;10.082;2022-10-31T04:28:07;99794.78;;;9.41;64.96
64189;BME280;50493;50.970;10.082;2022-10-31T04:30:32;99804.38;;;9.41;65.03
64189;BME280;50493;50.970;10.082;2022-10-31T04:32:58;99800.06;;;9.38;64.97
64189;BME280;50493;50.970;10.082;2022-10-31T04:35:23;99799.25;;;9.28;65.59
64189;BME280;50493;50.970;10.082;2022-10-31T04:37:48;99803.69;;;9.19;65.85
64189;BME280;50493;50.970;10.082;2022-10-31T04:40:15;99801.16;;;9.09;65.88
64189;BME280;50493;50.970;10.082;2022-10-31T04:42:41;99809.00;;;9.12;65.57
64189;BME280;50493;50.970;10.082;2022-10-31T04:45:06;99810.69;;;9.13;65.88
64189;BME280;50493;50.970;10.082;2022-10-31T04:47:32;99807.19;;;9.18;65.47
64189;BME280;50493;50.970;10.082;2022-10-31T04:49:58;99808.09;;;9.17;65.34
64189;BME280;50493;50.970;10.082;2022-10-31T04:52:24;99814.16;;;9.16;65.43
64189;BME280;50493;50.970;10.082;2022-10-31T04:54:49;99805.41;;;9.23;64.97
64189;BME280;50493;50.970;10.082;2022-10-31T04:57:16;99804.50;;;9.25;64.63
64189;BME280;50493;50.970;10.082;2022-10-31T04:59:41;99807.97;;;9.29;64.28
64189;BME280;50493;50.970;10.082;2022-10-31T05:02:07;99805.34;;;9.30;64.00
64189;BME280;50493;50.970;10.082;2022-10-31T05:04:32;99801.94;;;9.22;64.53
64189;BME280;50493;50.970;10.082;2022-10-31T05:06:57;99802.03;;;9.11;64.92
64189;BME280;50493;50.970;10.082;2022-10-31T05:09:23;99812.50;;;9.07;65.17
64189;BME280;50493;50.970;10.082;2022-10-31T05:11:48;99807.28;;;9.08;64.65
64189;BME280;50493;50.970;10.082;2022-10-31T05:14:15;99806.41;;;9.11;64.56
64189;BME280;50493;50.970;10.082;2022-10-31T05:16:40;99801.25;;;9.03;64.86
64189;BME280;50493;50.970;10.082;2022-10-31T05:19:06;99803.88;;;9.00;64.96
64189;BME280;50493;50.970;10.082;2022-10-31T05:21:31;99803.94;;;8.91;65.09
64189;BME280;50493;50.970;10.082;2022-10-31T05:23:57;99800.38;;;9.01;64.90
64189;BME280;50493;50.970;10.082;2022-10-31T05:26:23;99798.63;;;9.03;64.62
64189;BME280;50493;50.970;10.082;2022-10-31T05:28:48;99801.25;;;9.03;64.44
64189;BME280;50493;50.970;10.082;2022-10-31T05:31:15;99803.03;;;8.96;64.71
64189;BME280;50493;50.970;10.082;2022-10-31T05:33:40;99804.75;;;8.93;64.56
64189;BME280;50493;50.970;10.082;2022-10-31T05:36:06;99803.94;;;8.91;64.68
64189;BME280;50493;50.970;10.082;2022-10-31T05:38:32;99798.69;;;8.97;64.13
64189;BME280;50493;50.970;10.082;2022-10-31T05:40:57;99798.69;;;8.97;64.26
64189;BME280;50493;50.970;10.082;2022-10-31T05:43:25;99796.19;;;8.80;64.73
64189;BME280;50493;50.970;10.082;2022-10-31T05:45:52;99804.91;;;8.76;65.05
64189;BME280;50493;50.970;10.082;2022-10-31T05:48:19;99801.44;;;8.74;64.89
64189;BME280;50493;50.970;10.082;2022-10-31T05:50:44;99807.53;;;8.71;64.99
64189;BME280;50493;50.970;10.082;2022-10-31T05:53:10;99809.25;;;8.78;64.55
64189;BME280;50493;50.970;10.082;2022-10-31T05:55:35;99811.78;;;8.85;64.00
64189;BME280;50493;50.970;10.082;2022-10-31T05:58:00;99817.03;;;8.77;64.55
64189;BME280;50493;50.970;10.082;2022-10-31T06:00:26;99820.63;;;8.60;65.24
64189;BME280;50493;50.970;10.082;2022-10-31T06:02:58;99807.59;;;8.67;64.85
64189;BME280;50493;50.970;10.082;2022-10-31T06:05:25;99802.34;;;8.68;64.47
64189;BME280;50493;50.970;10.082;2022-10-31T06:07:50;99812.75;;;8.71;64.60
64189;BME280;50493;50.970;10.082;2022-10-31T06:10:16;99813.56;;;8.83;63.84
64189;BME280;50493;50.970;10.082;2022-10-31T06:12:41;99817.06;;;8.78;63.68
64189;BME280;50493;50.970;10.082;2022-10-31T06:15:08;99819.66;;;8.75;63.87
64189;BME280;50493;50.970;10.082;2022-10-31T06:17:34;99825.66;;;8.88;63.33
64189;BME280;50493;50.970;10.082;2022-10-31T06:20:00;99822.16;;;8.95;62.96
64189;BME280;50493;50.970;10.082;2022-10-31T06:22:27;99827.34;;;8.94;63.02
64189;BME280;50493;50.970;10.082;2022-10-31T06:24:52;99830.00;;;8.91;62.99
64189;BME280;50493;50.970;10.082;2022-10-31T06:27:18;99823.94;;;8.87;62.84
64189;BME280;50493;50.970;10.082;2022-10-31T06:29:43;99830.88;;;8.88;63.17
64189;BME280;50493;50.970;10.082;2022-10-31T06:32:12;99840.44;;;8.89;63.00
64189;BME280;50493;50.970;10.082;2022-10-31T06:34:37;99843.81;;;9.08;61.87
64189;BME280;50493;50.970;10.082;2022-10-31T06:37:03;99848.16;;;9.06;61.99
64189;BME280;50493;50.970;10.082;2022-10-31T06:39:29;99854.31;;;8.99;62.49
64189;BME280;50493;50.970;10.082;2022-10-31T06:41:55;99858.53;;;9.12;61.73
64189;BME280;50493;50.970;10.082;2022-10-31T06:44:20;99857.63;;;9.17;61.40
64189;BME280;50493;50.970;10.082;2022-10-31T06:46:46;99869.84;;;9.11;61.79
64189;BME280;50493;50.970;10.082;2022-10-31T06:49:12;99866.44;;;9.03;62.29
64189;BME280;50493;50.970;10.082;2022-10-31T06:51:37;99864.66;;;9.05;61.90
64189;BME280;50493;50.970;10.082;2022-10-31T06:54:03;99873.25;;;9.20;61.17
64189;BME280;50493;50.970;10.082;2022-10-31T06:56:29;99874.81;;;9.39;60.49
64189;BME280;50493;50.970;10.082;2022-10-31T06:58:55;99874.00;;;9.31;60.73
64189;BME280;50493;50.970;10.082;2022-10-31T07:01:20;99879.31;;;9.20;61.25
64189;BME280;50493;50.970;10.082;2022-10-31T07:03:46;99888.81;;;9.32;60.57
64189;BME280;50493;50.970;10.082;2022-10-31T07:06:11;99873.06;;;9.41;60.44
64189;BME280;50493;50.970;10.082;2022-10-31T07:08:36;99874.59;;;9.64;60.29
64189;BME280;50493;50.970;10.082;2022-10-31T07:11:02;99872.00;;;9.61;59.60
64189;BME280;50493;50.970;10.082;2022-10-31T07:13:29;99872.91;;;9.60;59.77
64189;BME280;50493;50.970;10.082;2022-10-31T07:15:59;99874.59;;;9.61;59.68
64189;BME280;50493;50.970;10.082;2022-10-31T07:18:25;99874.34;;;9.87;58.71
64189;BME280;50493;50.970;10.082;2022-10-31T07:20:52;99872.50;;;9.97;62.18
64189;BME280;50493;50.970;10.082;2022-10-31T07:23:18;99875.22;;;9.88;62.93
64189;BME280;50493;50.970;10.082;2022-10-31T07:25:43;99871.88;;;9.72;64.72
64189;BME280;50493;50.970;10.082;2022-10-31T07:28:09;99864.44;;;9.35;66.25
64189;BME280;50493;50.970;10.082;2022-10-31T07:30:36;99870.34;;;9.52;65.00
64189;BME280;50493;50.970;10.082;2022-10-31T07:33:02;99862.34;;;9.72;59.52
64189;BME280;50493;50.970;10.082;2022-10-31T07:35:28;99864.53;;;10.08;59.86
64189;BME280;50493;50.970;10.082;2022-10-31T07:37:54;99857.41;;;10.22;57.69
64189;BME280;50493;50.970;10.082;2022-10-31T07:40:21;99851.94;;;10.41;57.10
64189;BME280;50493;50.970;10.082;2022-10-31T07:42:48;99855.97;;;10.65;56.36
64189;BME280;50493;50.970;10.082;2022-10-31T07:45:15;99841.63;;;10.91;58.79
64189;BME280;50493;50.970;10.082;2022-10-31T07:47:43;99850.06;;;11.08;54.96
64189;BME280;50493;50.970;10.082;2022-10-31T07:50:11;99849.63;;;11.36;53.70
64189;BME280;50493;50.970;10.082;2022-10-31T07:52:37;99845.97;;;11.45;53.45
64189;BME280;50493;50.970;10.082;2022-10-31T07:55:03;99844.94;;;11.54;53.20
64189;BME280;50493;50.970;10.082;2022-10-31T07:57:29;99847.03;;;11.85;52.17
64189;BME280;50493;50.970;10.082;2022-10-31T07:59:54;99839.25;;;12.24;50.95
64189;BME280;50493;50.970;10.082;2022-10-31T08:02:20;99842.38;;;12.41;50.31
64189;BME280;50493;50.970;10.082;2022-10-31T08:04:47;99837.84;;;12.46;52.77
64189;BME280;50493;50.970;10.082;2022-10-31T08:07:12;99834.59;;;12.37;50.48
64189;BME280;50493;50.970;10.082;2022-10-31T08:09:38;99837.59;;;12.20;51.01
64189;BME280;50493;50.970;10.082;2022-10-31T08:12:04;99830.25;;;11.93;51.72
64189;BME280;50493;50.970;10.082;2022-10-31T08:14:29;99833.19;;;12.61;53.86
64189;BME280;50493;50.970;10.082;2022-10-31T08:16:55;99832.53;;;13.25;52.48
64189;BME280;50493;50.970;10.082;2022-10-31T08:19:20;99829.56;;;13.72;52.66
64189;BME280;50493;50.970;10.082;2022-10-31T08:21:50;99834.22;;;12.54;50.01
64189;BME280;50493;50.970;10.082;2022-10-31T08:24:15;99834.69;;;13.43;54.19
64189;BME280;50493;50.970;10.082;2022-10-31T08:26:41;99833.47;;;13.57;53.85
64189;BME280;50493;50.970;10.082;2022-10-31T08:29:06;99833.72;;;13.47;54.36
64189;BME280;50493;50.970;10.082;2022-10-31T08:31:32;99834.28;;;13.26;55.17
64189;BME280;50493;50.970;10.082;2022-10-31T08:33:57;99837.94;;;12.43;57.90
64189;BME280;50493;50.970;10.082;2022-10-31T08:36:22;99838.66;;;10.58;65.97
64189;BME280;50493;50.970;10.082;2022-10-31T08:38:49;99831.88;;;10.44;66.12
64189;BME280;50493;50.970;10.082;2022-10-31T08:41:15;99829.66;;;10.12;67.63
64189;BME280;50493;50.970;10.082;2022-10-31T08:43:40;99825.38;;;10.06;68.67
64189;BME280;50493;50.970;10.082;2022-10-31T08:46:06;99823.38;;;10.88;65.67
64189;BME280;50493;50.970;10.082;2022-10-31T08:48:31;99818.81;;;11.02;65.67
64189;BME280;50493;50.970;10.082;2022-10-31T08:50:58;99822.56;;;11.84;61.44
64189;BME280;50493;50.970;10.082;2022-10-31T08:53:24;99814.00;;;11.76;62.14
64189;BME280;50493;50.970;10.082;2022-10-31T08:55:54;99817.50;;;11.76;55.73
64189;BME280;50493;50.970;10.082;2022-10-31T08:58:20;99818.31;;;11.78;55.38
64189;BME280;50493;50.970;10.082;2022-10-31T09:00:47;99815.41;;;12.35;59.83
64189;BME280;50493;50.970;10.082;2022-10-31T09:03:14;99809.00;;;12.09;53.97
64189;BME280;50493;50.970;10.082;2022-10-31T09:05:40;99808.94;;;12.10;56.17
64189;BME280;50493;50.970;10.082;2022-10-31T09:08:06;99808.72;;;12.21;54.36
64189;BME280;50493;50.970;10.082;2022-10-31T09:10:34;99806.13;;;12.20;60.63
64189;BME280;50493;50.970;10.082;2022-10-31T09:13:03;99809.66;;;11.76;62.75
64189;BME280;50493;50.970;10.082;2022-10-31T09:15:32;99810.47;;;11.78;63.22
64189;BME280;50493;50.970;10.082;2022-10-31T09:17:57;99809.09;;;11.59;60.28
64189;BME280;50493;50.970;10.082;2022-10-31T09:20:23;99802.28;;;10.98;66.96
64189;BME280;50493;50.970;10.082;2022-10-31T09:22:55;99805.72;;;10.44;69.00
64189;BME280;50493;50.970;10.082;2022-10-31T09:25:21;99802.50;;;11.85;63.77
64189;BME280;50493;50.970;10.082;2022-10-31T09:27:46;99807.34;;;12.03;54.20
64189;BME280;50493;50.970;10.082;2022-10-31T09:30:13;99798.19;;;12.62;52.41
64189;BME280;50493;50.970;10.082;2022-10-31T09:32:39;99801.50;;;13.72;51.27
64189;BME280;50493;50.970;10.082;2022-10-31T09:35:05;99792.78;;;15.42;53.34
64189;BME280;50493;50.970;10.082;2022-10-31T09:37:30;99781.47;;;16.57;50.27
64189;BME280;50493;50.970;10.082;2022-10-31T09:39:56;99775.50;;;16.51;42.60
64189;BME280;50493;50.970;10.082;2022-10-31T09:42:39;99779.19;;;16.47;42.54
64189;BME280;50493;50.970;10.082;2022-10-31T09:45:15;99780.47;;;16.37;48.68
64189;BME280;50493;50.970;10.082;2022-10-31T09:47:52;99778.31;;;16.01;47.00
64189;BME280;50493;50.970;10.082;2022-10-31T09:50:22;99774.75;;;15.78;51.89
64189;BME280;50493;50.970;10.082;2022-10-31T09:52:54;99768.25;;;15.89;52.27
64189;BME280;50493;50.970;10.082;2022-10-31T09:55:26;99768.13;;;16.15;50.81
64189;BME280;50493;50.970;10.082;2022-10-31T09:57:55;99766.50;;;16.35;50.73
64189;BME280;50493;50.970;10.082;2022-10-31T10:00:22;99763.47;;;16.44;51.01
64189;BME280;50493;50.970;10.082;2022-10-31T10:02:52;99761.22;;;16.35;51.91
64189;BME280;50493;50.970;10.082;2022-10-31T10:05:22;99756.72;;;16.59;51.45
64189;BME280;50493;50.970;10.082;2022-10-31T10:07:55;99753.72;;;17.11;49.93
64189;BME280;50493;50.970;10.082;2022-10-31T10:10:44;99747.75;;;18.06;47.61
64189;BME280;50493;50.970;10.082;2022-10-31T10:13:36;99750.22;;;18.09;46.63
64189;BME280;50493;50.970;10.082;2022-10-31T10:16:15;99750.75;;;17.98;47.70
64189;BME280;50493;50.970;10.082;2022-10-31T10:18:55;99753.56;;;17.56;48.66
64189;BME280;50493;50.970;10.082;2022-10-31T10:21:32;99758.16;;;16.00;53.42
64189;BME280;50493;50.970;10.082;2022-10-31T10:24:15;99752.25;;;14.40;59.96
64189;BME280;50493;50.970;10.082;2022-10-31T10:26:46;99762.44;;;15.55;55.64
64189;BME280;50493;50.970;10.082;2022-10-31T10:29:31;99747.22;;;15.38;56.74
64189;BME280;50493;50.970;10.082;2022-10-31T10:32:02;99747.03;;;16.15;53.82
64189;BME280;50493;50.970;10.082;2022-10-31T10:34:34;99744.22;;;16.20;54.02
64189;BME280;50493;50.970;10.082;2022-10-31T10:37:04;99748.63;;;16.19;54.09
64189;BME280;50493;50.970;10.082;2022-10-31T10:39:32;99740.88;;;16.37;53.38
64189;BME280;50493;50.970;10.082;2022-10-31T10:42:00;99737.88;;;16.02;54.18
64189;BME280;50493;50.970;10.082;2022-10-31T10:44:46;99735.19;;;14.25;60.77
64189;BME280;50493;50.970;10.082;2022-10-31T10:47:38;99730.00;;;15.29;57.35
64189;BME280;50493;50.970;10.082;2022-10-31T10:50:12;99726.38;;;15.79;56.51
64189;BME280;50493;50.970;10.082;2022-10-31T10:52:44;99722.09;;;16.00;56.05
64189;BME280;50493;50.970;10.082;2022-10-31T10:55:16;99712.19;;;16.51;54.73
64189;BME280;50493;50.970;10.082;2022-10-31T10:57:55;99719.38;;;16.68;52.99
64189;BME280;50493;50.970;10.082;2022-10-31T11:00:22;99713.72;;;16.78;53.90
64189;BME280;50493;50.970;10.082;2022-10-31T11:02:49;99717.25;;;16.78;52.91
64189;BME280;50493;50.970;10.082;2022-10-31T11:05:23;99706.31;;;17.08;52.93
64189;BME280;50493;50.970;10.082;2022-10-31T11:07:48;99706.34;;;17.27;52.15
64189;BME280;50493;50.970;10.082;2022-10-31T11:10:15;99708.38;;;17.41;51.88
64189;BME280;50493;50.970;10.082;2022-10-31T11:12:42;99703.06;;;17.22;51.88
64189;BME280;50493;50.970;10.082;2022-10-31T11:15:18;99702.81;;;16.87;52.74
64189;BME280;50493;50.970;10.082;2022-10-31T11:17:49;99701.41;;;17.19;53.04
64189;BME280;50493;50.970;10.082;2022-10-31T11:20:36;99689.16;;;17.77;50.26
64189;BME280;50493;50.970;10.082;2022-10-31T11:23:05;99677.56;;;17.99;49.93
64189;BME280;50493;50.970;10.082;2022-10-31T11:25:31;99685.84;;;17.72;50.51
64189;BME280;50493;50.970;10.082;2022-10-31T11:28:00;99675.88;;;18.15;50.93
64189;BME280;50493;50.970;10.082;2022-10-31T11:30:27;99668.69;;;18.00;48.66
64189;BME280;50493;50.970;10.082;2022-10-31T11:32:55;99665.25;;;17.98;48.71
64189;BME280;50493;50.970;10.082;2022-10-31T11:35:22;99662.34;;;18.58;48.72
64189;BME280;50493;50.970;10.082;2022-10-31T11:37:51;99651.97;;;19.40;45.98
64189;BME280;50493;50.970;10.082;2022-10-31T11:40:20;99658.97;;;19.57;45.61
64189;BME280;50493;50.970;10.082;2022-10-31T11:42:47;99649.72;;;20.12;44.85
64189;BME280;50493;50.970;10.082;2022-10-31T11:45:16;99649.22;;;20.82;44.98
64189;BME280;50493;50.970;10.082;2022-10-31T11:47:45;99637.47;;;21.73;43.01
64189;BME280;50493;50.970;10.082;2022-10-31T11:50:22;99637.97;;;21.07;41.98
64189;BME280;50493;50.970;10.082;2022-10-31T11:52:48;99637.47;;;19.29;47.05
64189;BME280;50493;50.970;10.082;2022-10-31T11:55:16;99630.53;;;19.27;48.29
64189;BME280;50493;50.970;10.082;2022-10-31T11:57:46;99628.81;;;19.75;46.71
64189;BME280;50493;50.970;10.082;2022-10-31T12:00:22;99624.81;;;19.01;49.93
64189;BME280;50493;50.970;10.082;2022-10-31T12:02:48;99614.97;;;20.16;47.30
64189;BME280;50493;50.970;10.082;2022-10-31T12:05:20;99612.59;;;20.12;48.30
64189;BME280;50493;50.970;10.082;2022-10-31T12:07:48;99605.66;;;20.09;47.52
64189;BME280;50493;50.970;10.082;2022-10-31T12:10:15;99598.22;;;20.46;47.30
64189;BME280;50493;50.970;10.082;2022-10-31T12:12:52;99602.56;;;20.33;47.02
64189;BME280;50493;50.970;10.082;2022-10-31T12:15:31;99598.94;;;20.34;47.53
64189;BME280;50493;50.970;10.082;2022-10-31T12:18:24;99602.22;;;19.45;51.01
64189;BME280;50493;50.970;10.082;2022-10-31T12:21:12;99594.66;;;19.69;50.60
64189;BME280;50493;50.970;10.082;2022-10-31T12:23:50;99593.13;;;19.65;50.32
64189;BME280;50493;50.970;10.082;2022-10-31T12:26:23;99589.81;;;20.24;49.93
64189;BME280;50493;50.970;10.082;2022-10-31T12:29:14;99590.16;;;20.93;47.83
64189;BME280;50493;50.970;10.082;2022-10-31T12:31:53;99587.09;;;21.28;46.73
64189;BME280;50493;50.970;10.082;2022-10-31T12:34:43;99581.91;;;21.53;46.02
64189;BME280;50493;50.970;10.082;2022-10-31T12:37:22;99576.75;;;21.79;45.73
64189;BME280;50493;50.970;10.082;2022-10-31T12:39:59;99574.28;;;21.76;46.06
64189;BME280;50493;50.970;10.082;2022-10-31T12:42:39;99571.63;;;21.05;48.47
64189;BME280;50493;50.970;10.082;2022-10-31T12:45:23;99568.41;;;21.57;46.66
64189;BME280;50493;50.970;10.082;2022-10-31T12:48:10;99569.91;;;20.31;51.01
64189;BME280;50493;50.970;10.082;2022-10-31T12:50:52;99557.13;;;20.07;51.67
64189;BME280;50493;50.970;10.082;2022-10-31T12:53:31;99551.38;;;20.45;50.62
64189;BME280;50493;50.970;10.082;2022-10-31T12:56:11;99554.63;;;20.50;51.63
64189;BME280;50493;50.970;10.082;2022-10-31T12:58:45;99546.06;;;19.84;52.26
64189;BME280;50493;50.970;10.082;2022-10-31T13:01:17;99541.28;;;20.05;52.44
64189;BME280;50493;50.970;10.082;2022-10-31T13:03:48;99537.53;;;20.40;51.10